Time;durP1;ratioP1;P1;durP2;ratioP2;P2;SDS_P1;SDS_P2;PMS_P1;PMS_P2;Temp;Humidity;BMP_temperature;BMP_pressure;BME280_temperature;BME280_humidity;BME280_pressure;Samples;Min_cycle;Max_cycle;Signal;HPM_P1;HPM_P2
2022/12/03 00:01:12;;;;;;;31.63;15.02;;;;;;;0.03;100.00;102588.81;5076739;28;20153;-71
2022/12/03 00:03:37;;;;;;;31.38;14.85;;;;;;;0.02;100.00;102588.84;5095573;28;20119;-71
2022/12/03 00:06:03;;;;;;;32.22;15.50;;;;;;;0.03;100.00;102591.44;5094919;28;20115;-71
2022/12/03 00:08:28;;;;;;;31.02;14.20;;;;;;;0.03;100.00;102593.16;5094997;28;20036;-71
2022/12/03 00:10:53;;;;;;;34.42;14.63;;;;;;;0.02;100.00;102588.84;5094995;28;20032;-71
2022/12/03 00:13:19;;;;;;;36.15;16.17;;;;;;;0.02;100.00;102584.47;5095149;28;20089;-71
2022/12/03 00:15:44;;;;;;;32.92;14.38;;;;;;;0.04;100.00;102592.28;5076441;28;20380;-71
2022/12/03 00:18:09;;;;;;;30.70;13.70;;;;;;;0.03;100.00;102587.94;5094787;28;20028;-71
2022/12/03 00:20:35;;;;;;;27.30;13.43;;;;;;;0.01;100.00;102580.13;5095070;28;20060;-71
2022/12/03 00:23:00;;;;;;;28.70;14.18;;;;;;;0.02;100.00;102583.63;5095038;28;20028;-71
2022/12/03 00:25:25;;;;;;;29.95;13.88;;;;;;;0.00;100.00;102578.41;5094660;28;20086;-71
2022/12/03 00:27:51;;;;;;;29.55;13.88;;;;;;;-0.02;100.00;102573.16;5094474;28;20039;-70
2022/12/03 00:30:16;;;;;;;28.95;13.50;;;;;;;-0.06;100.00;102568.91;5094985;28;20093;-71
2022/12/03 00:32:41;;;;;;;27.95;13.98;;;;;;;-0.08;100.00;102569.81;5077178;28;20425;-71
2022/12/03 00:35:07;;;;;;;33.25;15.32;;;;;;;-0.10;100.00;102561.16;5094586;28;20036;-71
2022/12/03 00:37:34;;;;;;;30.95;14.73;;;;;;;-0.14;100.00;102559.47;5093432;28;20038;-71
2022/12/03 00:40:00;;;;;;;31.45;13.63;;;;;;;-0.17;100.00;102560.38;5094214;28;20035;-72
2022/12/03 00:42:26;;;;;;;33.90;15.05;;;;;;;-0.18;100.00;102563.88;5094917;28;20048;-71
2022/12/03 00:44:51;;;;;;;28.58;13.63;;;;;;;-0.21;100.00;102564.81;5094330;28;20058;-71
2022/12/03 00:47:17;;;;;;;27.00;14.40;;;;;;;-0.22;100.00;102567.47;5094188;28;20104;-71
2022/12/03 00:49:42;;;;;;;35.28;15.07;;;;;;;-0.23;100.00;102565.72;5094191;28;20123;-71
2022/12/03 00:52:07;;;;;;;31.17;14.85;;;;;;;-0.26;100.00;102563.16;5093785;28;20068;-71
2022/12/03 00:54:33;;;;;;;28.33;14.13;;;;;;;-0.25;100.00;102572.75;5094303;28;20024;-71
2022/12/03 00:56:58;;;;;;;34.17;14.73;;;;;;;-0.26;100.00;102573.63;5094118;28;20059;-71
2022/12/03 00:59:24;;;;;;;33.55;15.55;;;;;;;-0.25;100.00;102575.38;5059788;28;20129;-71
2022/12/03 01:01:49;;;;;;;28.20;14.82;;;;;;;-0.25;100.00;102572.75;5094043;28;20071;-71
2022/12/03 01:04:14;;;;;;;31.85;15.60;;;;;;;-0.25;100.00;102570.13;5093932;28;20028;-71
2022/12/03 01:06:40;;;;;;;29.25;14.20;;;;;;;-0.23;100.00;102563.09;5093881;28;20032;-71
2022/12/03 01:09:05;;;;;;;31.33;15.25;;;;;;;-0.24;100.00;102566.59;5094048;28;20460;-71
2022/12/03 01:11:36;;;;;;;32.30;15.02;;;;;;;-0.24;100.00;102550.91;5093875;28;20034;-71
2022/12/03 01:14:09;;;;;;;31.30;15.15;;;;;;;-0.23;100.00;102545.66;5094247;28;20392;-71
2022/12/03 01:16:35;;;;;;;31.02;15.43;;;;;;;-0.21;100.00;102548.22;5094064;28;20500;-71
2022/12/03 01:19:01;;;;;;;30.50;14.63;;;;;;;-0.19;100.00;102549.09;5093409;28;20498;-71
2022/12/03 01:21:26;;;;;;;30.30;15.05;;;;;;;-0.19;100.00;102547.31;5093628;28;20028;-71
2022/12/03 01:23:52;;;;;;;31.92;14.82;;;;;;;-0.16;100.00;102548.16;5093639;28;20031;-71
2022/12/03 01:26:17;;;;;;;30.58;14.60;;;;;;;-0.15;100.00;102542.91;5093275;28;20043;-71
2022/12/03 01:28:42;;;;;;;32.65;14.63;;;;;;;-0.12;100.00;102549.81;5094300;28;20075;-71
2022/12/03 01:33:52;;;;;;;30.40;14.15;;;;;;;-0.09;100.00;102545.41;5094071;28;20039;-71
2022/12/03 01:36:17;;;;;;;31.67;15.00;;;;;;;-0.07;100.00;102545.38;5093411;28;20036;-71
2022/12/03 01:38:43;;;;;;;30.52;14.27;;;;;;;-0.07;100.00;102540.16;5075366;28;20036;-72
2022/12/03 01:41:09;;;;;;;28.70;13.40;;;;;;;-0.04;100.00;102538.31;5093272;28;20101;-70
2022/12/03 01:43:35;;;;;;;27.55;13.55;;;;;;;-0.04;100.00;102538.31;5093712;28;20085;-71
2022/12/03 01:46:00;;;;;;;31.17;14.60;;;;;;;-0.03;100.00;102537.44;5093598;28;20036;-72
2022/12/03 01:48:30;;;;;;;32.63;14.93;;;;;;;-0.01;100.00;102542.66;5092835;28;20034;-71
2022/12/03 01:50:56;;;;;;;33.75;15.23;;;;;;;-0.01;100.00;102532.19;5093618;28;20460;-71
2022/12/03 01:53:21;;;;;;;31.50;15.23;;;;;;;0.01;100.00;102546.09;5092921;28;20111;-71
2022/12/03 01:55:46;;;;;;;33.35;14.70;;;;;;;0.04;100.00;102539.94;5093194;28;20035;-71
2022/12/03 01:58:14;;;;;;;34.10;14.98;;;;;;;0.04;100.00;102534.72;5093473;28;20063;-71
2022/12/03 02:00:39;;;;;;;30.80;14.32;;;;;;;0.04;100.00;102534.72;5093497;28;20034;-71
2022/12/03 02:03:17;;;;;;;33.78;15.48;;;;;;;0.03;100.00;102527.75;5093200;28;20028;-70
2022/12/03 02:05:42;;;;;;;31.65;15.55;;;;;;;0.03;100.00;102522.50;5093436;28;20061;-71
2022/12/03 02:08:31;;;;;;;34.17;15.30;;;;;;;0.02;100.00;102523.41;5093553;28;20042;-71
2022/12/03 02:11:00;;;;;;;29.67;14.45;;;;;;;0.00;100.00;102523.44;5093195;28;20101;-70
2022/12/03 02:13:25;;;;;;;32.78;15.32;;;;;;;-0.03;100.00;102516.50;5075213;28;20042;-70
2022/12/03 02:15:51;;;;;;;35.13;16.02;;;;;;;-0.06;100.00;102534.00;5092938;28;20375;-70
2022/12/03 02:18:17;;;;;;;34.60;15.15;;;;;;;-0.13;100.00;102529.81;5092984;28;20032;-71
2022/12/03 02:21:20;;;;;;;33.78;15.35;;;;;;;-0.21;100.00;102528.19;5093168;28;20032;-70
2022/12/03 02:24:18;;;;;;;33.22;15.00;;;;;;;-0.28;100.00;102530.94;5092785;28;20031;-70
2022/12/03 02:26:43;;;;;;;36.40;15.75;;;;;;;-0.30;100.00;102524.84;5092774;28;20431;-70
2022/12/03 02:29:09;;;;;;;33.42;16.30;;;;;;;-0.30;100.00;102524.84;5093009;28;20137;-70
2022/12/03 02:31:34;;;;;;;35.80;16.15;;;;;;;-0.31;100.00;102528.34;5092921;28;20044;-72
2022/12/03 02:34:07;;;;;;;31.23;14.48;;;;;;;-0.28;100.00;102530.94;5075457;28;20120;-70
2022/12/03 02:36:33;;;;;;;34.10;15.05;;;;;;;-0.26;100.00;102523.94;5093103;28;20032;-70
2022/12/03 02:38:58;;;;;;;36.58;15.82;;;;;;;-0.24;100.00;102524.75;5092892;28;20511;-70
2022/12/03 02:44:08;;;;;;;34.78;15.68;;;;;;;-0.18;100.00;102522.00;5092765;28;20051;-73
2022/12/03 02:46:34;;;;;;;35.15;15.25;;;;;;;-0.16;100.00;102520.25;5092742;28;20024;-74
2022/12/03 02:49:00;;;;;;;30.38;14.93;;;;;;;-0.13;100.00;102521.97;5092908;28;20036;-74
2022/12/03 02:51:26;;;;;;;34.72;15.40;;;;;;;-0.12;100.00;102518.44;5092943;28;20115;-75
2022/12/03 02:53:54;;;;;;;31.10;14.55;;;;;;;-0.12;100.00;102515.81;5074255;28;20111;-75
2022/12/03 02:56:23;;;;;;;35.90;14.27;;;;;;;-0.13;100.00;102512.34;5092173;28;20035;-75
2022/12/03 02:58:53;;;;;;;29.90;14.48;;;;;;;-0.10;100.00;102514.91;5092405;28;20103;-74
2022/12/03 03:01:19;;;;;;;33.43;15.33;;;;;;;-0.10;100.00;102506.19;5094722;28;20032;-76
2022/12/03 03:03:46;;;;;;;32.92;15.32;;;;;;;-0.09;100.00;102510.50;5096328;28;20353;-75
2022/12/03 03:06:13;;;;;;;31.20;15.13;;;;;;;-0.08;100.00;102505.25;5095815;28;20032;-75
2022/12/03 03:08:39;;;;;;;32.65;14.43;;;;;;;-0.08;100.00;102502.63;5095801;28;20051;-75
2022/12/03 03:11:05;;;;;;;29.92;15.05;;;;;;;-0.07;100.00;102495.66;5095829;28;20035;-75
2022/12/03 03:13:32;;;;;;;32.78;15.60;;;;;;;-0.08;100.00;102492.16;5078315;28;20044;-75
2022/12/03 03:15:58;;;;;;;34.95;15.48;;;;;;;-0.06;100.00;102498.25;5095673;28;20031;-74
2022/12/03 03:18:23;;;;;;;31.23;14.15;;;;;;;-0.06;100.00;102506.09;5096113;28;20111;-74
2022/12/03 03:20:49;;;;;;;33.38;15.25;;;;;;;-0.06;100.00;102494.75;5095653;28;20376;-74
2022/12/03 03:23:18;;;;;;;35.47;15.82;;;;;;;-0.07;100.00;102490.44;5095573;28;20040;-74
2022/12/03 03:25:48;;;;;;;32.05;14.98;;;;;;;-0.07;100.00;102488.66;5095425;28;20112;-74
2022/12/03 03:28:14;;;;;;;29.20;14.27;;;;;;;-0.04;100.00;102500.84;5095349;28;20050;-74
2022/12/03 03:30:42;;;;;;;31.75;14.27;;;;;;;-0.04;100.00;102493.00;5077424;28;20028;-74
2022/12/03 03:33:09;;;;;;;28.75;13.77;;;;;;;-0.06;100.00;102495.63;5077793;28;20036;-74
2022/12/03 03:35:36;;;;;;;34.65;15.38;;;;;;;-0.06;100.00;102493.03;5095473;28;20028;-75
2022/12/03 03:38:01;;;;;;;34.92;14.20;;;;;;;-0.04;100.00;102493.00;5095283;28;20032;-75
2022/12/03 03:40:28;;;;;;;31.13;14.38;;;;;;;-0.06;100.00;102493.03;5095444;28;20032;-75
2022/12/03 03:42:54;;;;;;;34.85;15.43;;;;;;;-0.03;100.00;102481.59;5095467;28;20032;-75
2022/12/03 03:45:20;;;;;;;29.63;14.48;;;;;;;-0.02;100.00;102489.41;5095164;28;20123;-75
2022/12/03 03:47:46;;;;;;;34.70;14.73;;;;;;;-0.02;100.00;102484.19;5094913;28;20034;-75
2022/12/03 03:50:12;;;;;;;28.27;14.07;;;;;;;0.01;100.00;102482.44;5095385;28;20032;-75
2022/12/03 03:52:39;;;;;;;33.72;14.82;;;;;;;0.01;100.00;102480.66;5094937;28;20100;-75
2022/12/03 03:55:06;;;;;;;30.75;14.35;;;;;;;-0.01;100.00;102483.31;5094954;28;20115;-75
2022/12/03 03:57:32;;;;;;;29.73;13.85;;;;;;;-0.02;100.00;102478.09;5094836;28;20031;-76
2022/12/03 03:59:58;;;;;;;31.00;13.75;;;;;;;-0.06;100.00;102479.94;5095250;28;20392;-75
2022/12/03 04:02:25;;;;;;;32.75;14.40;;;;;;;-0.06;100.00;102481.66;5094891;28;20024;-75
2022/12/03 04:04:51;;;;;;;32.50;14.18;;;;;;;-0.06;100.00;102474.69;5094860;28;20059;-76
2022/12/03 04:07:16;;;;;;;30.95;14.55;;;;;;;-0.06;100.00;102469.47;5094408;28;20084;-76
2022/12/03 04:09:42;;;;;;;29.23;13.57;;;;;;;-0.03;100.00;102468.53;5094867;28;20392;-75
2022/12/03 04:14:52;;;;;;;29.58;14.25;;;;;;;0.02;100.00;102463.22;5094262;28;20146;-75
2022/12/03 04:17:18;;;;;;;31.92;14.52;;;;;;;0.04;100.00;102454.41;5095220;28;20119;-75
2022/12/03 04:19:43;;;;;;;28.75;14.93;;;;;;;0.09;100.00;102447.34;5094420;28;20039;-76
2022/12/03 04:28:47;;;;;;;26.65;14.20;;;;;;;0.14;100.00;102452.50;5093615;28;20055;-76
2022/12/03 04:30:41;;;;;;;30.77;13.50;;;;;;;0.20;100.00;102449.75;5012078;28;20041;-76
2022/12/03 04:35:50;;;;;;;27.98;13.95;;;;;;;0.24;100.00;102448.78;5045750;28;20494;-76
2022/12/03 04:38:15;;;;;;;30.50;15.02;;;;;;;0.26;100.00;102443.50;5094312;28;20029;-76
2022/12/03 04:43:29;;;;;;;34.90;15.57;;;;;;;0.28;100.00;102444.34;5094800;28;20097;-76
2022/12/03 04:45:55;;;;;;;34.10;15.13;;;;;;;0.30;100.00;102448.66;5094269;28;20032;-76
2022/12/03 04:48:20;;;;;;;38.83;15.25;;;;;;;0.31;100.00;102437.28;5094037;28;20039;-76
2022/12/03 04:50:45;;;;;;;31.17;15.20;;;;;;;0.32;100.00;102435.53;5094008;28;20452;-76
2022/12/03 04:53:11;;;;;;;33.50;14.40;;;;;;;0.34;100.00;102424.13;5093820;28;20488;-76
2022/12/03 04:55:36;;;;;;;31.67;14.63;;;;;;;0.37;100.00;102435.41;5093868;28;20035;-75
2022/12/03 04:58:02;;;;;;;33.85;15.40;;;;;;;0.39;100.00;102425.75;5093903;28;20028;-76
2022/12/03 05:00:27;;;;;;;34.13;16.35;;;;;;;0.41;100.00;102429.22;5094074;28;20036;-75
2022/12/03 05:02:52;;;;;;;34.80;15.02;;;;;;;0.43;100.00;102430.03;5094090;28;20368;-75
2022/12/03 05:05:18;;;;;;;31.65;14.98;;;;;;;0.45;100.00;102438.72;5075427;28;20040;-75
2022/12/03 05:07:43;;;;;;;32.58;14.63;;;;;;;0.46;100.00;102430.84;5075562;28;20028;-75
2022/12/03 05:10:09;;;;;;;32.13;14.70;;;;;;;0.47;100.00;102431.69;5093574;28;20032;-75
2022/12/03 05:12:34;;;;;;;38.33;15.75;;;;;;;0.49;100.00;102435.13;5093845;28;20347;-78
2022/12/03 05:15:00;;;;;;;31.27;15.65;;;;;;;0.51;100.00;102428.97;5093401;28;20024;-75
2022/12/03 05:17:26;;;;;;;33.28;16.17;;;;;;;0.50;100.00;102429.84;5093235;28;20111;-75
2022/12/03 05:22:35;;;;;;;33.75;15.98;;;;;;;0.55;100.00;102429.75;5093218;28;20155;-75
2022/12/03 05:25:00;;;;;;;33.70;15.57;;;;;;;0.55;100.00;102421.88;5075604;28;20067;-75
2022/12/03 05:27:25;;;;;;;39.95;16.67;;;;;;;0.55;100.00;102424.50;5093016;28;20047;-75
2022/12/03 05:29:51;;;;;;;35.50;15.52;;;;;;;0.57;100.00;102425.34;5093393;28;20040;-75
2022/12/03 05:32:17;;;;;;;33.42;17.30;;;;;;;0.58;100.00;102424.44;5093774;28;20040;-75
2022/12/03 05:34:43;;;;;;;36.75;16.70;;;;;;;0.59;100.00;102426.16;5093629;28;20419;-75
2022/12/03 05:37:08;;;;;;;37.60;17.27;;;;;;;0.59;100.00;102417.47;5093152;28;20063;-74
2022/12/03 05:39:33;;;;;;;34.90;16.38;;;;;;;0.58;100.00;102416.56;5093172;28;20047;-75
2022/12/03 05:44:42;;;;;;;34.08;16.48;;;;;;;0.58;100.00;102415.72;5093060;28;20082;-75
2022/12/03 05:47:08;;;;;;;37.53;17.00;;;;;;;0.59;100.00;102415.69;5093109;28;20456;-75
2022/12/03 05:49:33;;;;;;;36.90;17.58;;;;;;;0.60;100.00;102411.31;5093361;28;20387;-75
2022/12/03 05:51:58;;;;;;;35.20;16.80;;;;;;;0.60;100.00;102413.91;5092886;28;20431;-75
2022/12/03 05:54:24;;;;;;;39.42;18.05;;;;;;;0.61;100.00;102411.28;5093089;28;20513;-75
2022/12/03 05:56:49;;;;;;;38.28;17.85;;;;;;;0.61;100.00;102407.78;5093086;28;20032;-75
2022/12/03 05:59:14;;;;;;;39.55;17.10;;;;;;;0.62;100.00;102404.28;5074897;28;20063;-75
2022/12/03 06:01:40;;;;;;;34.25;16.83;;;;;;;0.60;100.00;102399.09;5093010;28;20028;-75
2022/12/03 06:04:05;;;;;;;38.42;17.45;;;;;;;0.60;100.00;102395.59;5092759;28;20028;-75
2022/12/03 06:06:30;;;;;;;37.05;17.52;;;;;;;0.60;100.00;102399.09;5093113;28;20081;-75
2022/12/03 06:08:56;;;;;;;37.10;17.25;;;;;;;0.61;100.00;102399.94;5092712;28;20038;-75
2022/12/03 06:11:21;;;;;;;36.20;16.90;;;;;;;0.61;100.00;102395.56;5093207;28;20058;-75
2022/12/03 06:13:47;;;;;;;39.78;17.30;;;;;;;0.60;100.00;102393.84;5092723;28;20113;-75
2022/12/03 06:16:12;;;;;;;41.72;17.27;;;;;;;0.59;100.00;102384.25;5092638;28;20433;-75
2022/12/03 06:18:37;;;;;;;38.38;16.58;;;;;;;0.60;100.00;102385.09;5092805;28;20464;-75
2022/12/03 06:21:03;;;;;;;36.85;18.20;;;;;;;0.59;100.00;102384.25;5074516;28;20035;-75
2022/12/03 06:23:28;;;;;;;38.53;18.58;;;;;;;0.59;100.00;102381.63;5093050;28;20044;-75
2022/12/03 06:25:53;;;;;;;37.75;17.13;;;;;;;0.58;100.00;102381.66;5092412;28;20123;-76
2022/12/03 06:28:19;;;;;;;37.70;17.02;;;;;;;0.59;100.00;102386.88;5074278;28;20115;-75
2022/12/03 06:30:44;;;;;;;37.08;17.25;;;;;;;0.59;100.00;102384.25;5092856;28;20163;-75
2022/12/03 06:33:09;;;;;;;31.75;16.02;;;;;;;0.59;100.00;102386.03;5093106;28;20177;-75
2022/12/03 06:35:35;;;;;;;33.20;15.75;;;;;;;0.58;100.00;102379.91;5095464;28;20456;-75
2022/12/03 06:38:00;;;;;;;33.35;16.52;;;;;;;0.58;100.00;102379.91;5096296;28;20039;-75
2022/12/03 06:40:26;;;;;;;34.28;16.50;;;;;;;0.59;100.00;102376.41;5096115;28;20114;-75
2022/12/03 06:42:51;;;;;;;34.78;16.50;;;;;;;0.60;100.00;102380.75;5097308;28;20048;-74
2022/12/03 06:45:17;;;;;;;34.10;15.93;;;;;;;0.61;100.00;102379.84;5096521;28;20066;-75
2022/12/03 06:47:42;;;;;;;33.72;16.90;;;;;;;0.61;100.00;102365.88;5095913;28;20075;-75
2022/12/03 06:50:08;;;;;;;34.65;15.95;;;;;;;0.60;100.00;102370.28;5078397;28;20043;-75
2022/12/03 06:52:34;;;;;;;38.30;16.35;;;;;;;0.59;100.00;102367.69;5096153;28;20464;-75
2022/12/03 06:54:59;;;;;;;30.10;15.93;;;;;;;0.59;100.00;102376.41;5095914;28;20039;-75
2022/12/03 06:57:25;;;;;;;34.33;15.40;;;;;;;0.58;100.00;102369.41;5096276;28;20031;-74
2022/12/03 06:59:50;;;;;;;32.80;15.90;;;;;;;0.59;100.00;102379.00;5095929;28;20032;-75
2022/12/03 07:02:15;;;;;;;32.78;15.73;;;;;;;0.59;100.00;102379.00;5095667;28;20396;-75
2022/12/03 07:04:41;;;;;;;31.92;16.63;;;;;;;0.59;100.00;102386.88;5095922;28;20130;-75
2022/12/03 07:07:06;;;;;;;35.72;17.30;;;;;;;0.58;100.00;102386.91;5095769;28;20066;-75
2022/12/03 07:09:32;;;;;;;33.47;16.13;;;;;;;0.58;100.00;102384.28;5095679;28;20443;-74
2022/12/03 07:11:57;;;;;;;29.65;15.07;;;;;;;0.57;100.00;102388.69;5096438;28;20043;-74
2022/12/03 07:14:22;;;;;;;30.85;15.80;;;;;;;0.58;100.00;102385.13;5095648;28;20097;-75
2022/12/03 07:16:48;;;;;;;31.08;15.07;;;;;;;0.58;100.00;102386.91;5095838;28;20044;-75
2022/12/03 07:19:13;;;;;;;33.72;16.92;;;;;;;0.56;100.00;102380.84;5095602;28;20034;-75
2022/12/03 07:21:39;;;;;;;32.40;15.48;;;;;;;0.56;100.00;102386.09;5095656;28;20076;-75
2022/12/03 07:24:05;;;;;;;33.60;16.27;;;;;;;0.57;100.00;102390.41;5095401;28;20040;-74
2022/12/03 07:26:30;;;;;;;31.70;16.13;;;;;;;0.56;100.00;102381.72;5095537;28;20078;-74
2022/12/03 07:28:56;;;;;;;33.00;16.35;;;;;;;0.57;100.00;102385.19;5077509;28;20042;-75
2022/12/03 07:31:21;;;;;;;29.13;14.57;;;;;;;0.56;100.00;102380.84;5095426;28;20036;-74
2022/12/03 07:33:47;;;;;;;33.63;15.55;;;;;;;0.57;100.00;102386.06;5095405;28;20085;-74
2022/12/03 07:36:12;;;;;;;34.10;16.52;;;;;;;0.55;100.00;102390.44;5095294;28;20064;-75
2022/12/03 07:38:38;;;;;;;38.20;16.48;;;;;;;0.57;100.00;102379.94;5095730;28;20469;-75
2022/12/03 07:41:03;;;;;;;40.22;17.30;;;;;;;0.56;100.00;102379.09;5095304;28;20175;-75
2022/12/03 07:43:29;;;;;;;35.45;16.52;;;;;;;0.58;100.00;102394.78;5095230;28;20055;-75
2022/12/03 07:45:54;;;;;;;34.17;16.40;;;;;;;0.58;100.00;102392.16;5094642;28;20028;-74
2022/12/03 07:48:19;;;;;;;31.50;16.90;;;;;;;0.54;100.00;102394.00;5094722;28;20126;-73
2022/12/03 07:50:45;;;;;;;36.95;17.00;;;;;;;0.56;100.00;102391.34;5094930;28;20118;-73
2022/12/03 07:53:10;;;;;;;40.60;17.58;;;;;;;0.57;100.00;102396.53;5094787;28;20081;-73
2022/12/03 07:55:36;;;;;;;34.53;16.90;;;;;;;0.58;100.00;102389.53;5094506;28;20039;-73
2022/12/03 07:58:01;;;;;;;36.70;17.77;;;;;;;0.57;100.00;102387.78;5094832;28;20441;-76
2022/12/03 08:00:26;;;;;;;39.00;18.10;;;;;;;0.56;100.00;102384.31;5094978;28;20020;-75
2022/12/03 08:02:52;;;;;;;35.58;16.30;;;;;;;0.56;100.00;102388.72;5094685;28;20531;-74
2022/12/03 08:05:17;;;;;;;37.17;17.90;;;;;;;0.58;100.00;102385.13;5095120;28;20032;-78
2022/12/03 08:07:42;;;;;;;37.90;17.70;;;;;;;0.58;100.00;102390.38;5094616;28;20384;-73
2022/12/03 08:10:08;;;;;;;35.72;18.08;;;;;;;0.57;100.00;102386.06;5094776;28;20031;-72
2022/12/03 08:12:39;;;;;;;34.03;17.08;;;;;;;0.59;100.00;102391.25;5094610;28;20036;-73
2022/12/03 08:15:15;;;;;;;37.63;17.80;;;;;;;0.60;100.00;102388.59;5076515;28;20468;-73
2022/12/03 08:17:42;;;;;;;35.88;16.77;;;;;;;0.60;100.00;102387.72;5094611;28;20030;-73
2022/12/03 08:20:16;;;;;;;35.70;18.00;;;;;;;0.60;100.00;102380.75;5094569;28;20035;-74
2022/12/03 08:22:44;;;;;;;39.60;18.63;;;;;;;0.59;100.00;102381.63;5095098;28;20085;-74
2022/12/03 08:25:19;;;;;;;33.55;17.92;;;;;;;0.60;100.00;102383.38;5094133;28;20043;-73
2022/12/03 08:27:44;;;;;;;36.25;17.55;;;;;;;0.61;100.00;102385.09;5094657;28;20024;-75
2022/12/03 08:30:12;;;;;;;38.50;18.50;;;;;;;0.62;100.00;102383.31;5094574;28;20032;-73
2022/12/03 08:32:38;;;;;;;35.83;18.75;;;;;;;0.60;100.00;102372.88;5094150;28;20107;-72
2022/12/03 08:35:17;;;;;;;44.22;18.50;;;;;;;0.61;100.00;102374.63;5093829;28;20373;-73
2022/12/03 08:37:42;;;;;;;38.45;18.85;;;;;;;0.59;100.00;102376.41;5094233;28;20028;-74
2022/12/03 08:40:21;;;;;;;39.55;18.55;;;;;;;0.57;100.00;102364.22;5094003;28;20062;-73
2022/12/03 08:42:47;;;;;;;42.47;18.52;;;;;;;0.56;100.00;102363.38;5094760;28;20131;-73
2022/12/03 08:45:28;;;;;;;41.53;20.20;;;;;;;0.53;100.00;102363.44;5094313;28;20063;-75
2022/12/03 08:48:19;;;;;;;39.28;20.20;;;;;;;0.56;100.00;102370.38;5093681;28;20103;-73
2022/12/03 08:50:45;;;;;;;37.35;19.75;;;;;;;0.55;100.00;102360.78;5082537;28;20036;-76
2022/12/03 08:53:22;;;;;;;40.80;19.83;;;;;;;0.56;100.00;102370.38;5093852;28;20107;-75
2022/12/03 08:55:51;;;;;;;43.25;19.17;;;;;;;0.52;100.00;102365.22;5093734;28;20059;-75
2022/12/03 08:58:26;;;;;;;40.30;20.05;;;;;;;0.53;100.00;102358.22;5092678;28;20036;-76
2022/12/03 09:00:59;;;;;;;45.10;20.23;;;;;;;0.52;100.00;102366.94;5093487;28;20440;-75
2022/12/03 09:03:28;;;;;;;35.90;18.48;;;;;;;0.53;100.00;102363.44;5093369;28;20031;-75
2022/12/03 09:05:54;;;;;;;40.85;19.92;;;;;;;0.53;100.00;102366.06;5093938;28;20063;-74
2022/12/03 09:08:19;;;;;;;38.00;19.17;;;;;;;0.54;100.00;102367.81;5075190;28;20055;-75
2022/12/03 09:10:44;;;;;;;39.58;19.90;;;;;;;0.54;100.00;102367.81;5093325;28;20039;-74
2022/12/03 09:13:10;;;;;;;40.72;19.00;;;;;;;0.55;100.00;102369.50;5093176;28;20134;-75
2022/12/03 09:15:35;;;;;;;38.67;19.45;;;;;;;0.57;100.00;102361.59;5093551;28;20035;-74
2022/12/03 09:18:00;;;;;;;41.60;20.67;;;;;;;0.57;100.00;102357.25;5093043;28;20065;-74
2022/12/03 09:20:26;;;;;;;37.28;19.38;;;;;;;0.56;100.00;102352.91;5093076;28;20126;-74
2022/12/03 09:22:51;;;;;;;35.83;19.08;;;;;;;0.56;100.00;102354.66;5093403;28;20043;-73
2022/12/03 09:25:16;;;;;;;37.63;19.77;;;;;;;0.56;100.00;102357.28;5092795;28;20070;-73
2022/12/03 09:27:42;;;;;;;37.15;19.48;;;;;;;0.55;100.00;102360.78;5093133;28;20046;-74
2022/12/03 09:30:07;;;;;;;37.60;18.15;;;;;;;0.56;100.00;102359.91;5075420;28;20039;-75
2022/12/03 09:32:33;;;;;;;37.38;19.27;;;;;;;0.53;100.00;102360.84;5092823;28;20039;-74
2022/12/03 09:34:58;;;;;;;34.13;18.45;;;;;;;0.53;100.00;102352.97;5092841;28;20472;-75
2022/12/03 09:37:23;;;;;;;37.70;19.80;;;;;;;0.55;100.00;102359.03;5093542;28;20032;-79
2022/12/03 09:39:49;;;;;;;36.53;18.52;;;;;;;0.57;100.00;102357.25;5093096;28;20377;-74
2022/12/03 09:42:14;;;;;;;38.15;18.25;;;;;;;0.62;100.00;102360.59;5092824;28;20519;-75
2022/12/03 09:44:40;;;;;;;39.53;18.80;;;;;;;0.64;100.00;102348.34;5092879;28;20036;-75
2022/12/03 09:47:06;;;;;;;35.78;18.25;;;;;;;0.68;100.00;102354.34;5093455;28;20107;-75
2022/12/03 09:49:35;;;;;;;40.10;19.42;;;;;;;0.73;100.00;102351.63;5093317;28;20028;-74
2022/12/03 09:52:02;;;;;;;36.80;18.67;;;;;;;0.78;100.00;102349.75;5093441;28;20043;-76
2022/12/03 09:54:29;;;;;;;35.05;17.58;;;;;;;0.84;100.00;102346.97;5074946;28;20032;-74
2022/12/03 09:56:58;;;;;;;36.47;18.00;;;;;;;0.89;100.00;102358.19;5093079;28;20055;-75
2022/12/03 09:59:26;;;;;;;36.83;18.40;;;;;;;0.92;100.00;102350.25;5093047;28;20060;-74
2022/12/03 10:01:53;;;;;;;33.15;17.35;;;;;;;0.97;100.00;102357.97;5075660;28;20384;-75
2022/12/03 10:04:19;;;;;;;29.88;16.02;;;;;;;0.98;100.00;102347.47;5093002;28;20457;-75
2022/12/03 10:06:44;;;;;;;32.25;17.60;;;;;;;0.98;100.00;102347.47;5075130;28;20036;-75
2022/12/03 10:09:13;;;;;;;34.67;17.55;;;;;;;1.03;100.00;102348.22;5093611;28;20028;-75
2022/12/03 10:11:38;;;;;;;36.78;17.38;;;;;;;1.08;100.00;102353.34;5097083;28;20035;-75
2022/12/03 10:14:04;;;;;;;30.75;17.15;;;;;;;1.12;100.00;102348.84;5097194;28;20028;-74
2022/12/03 10:16:30;;;;;;;32.47;17.95;;;;;;;1.13;100.00;102345.34;5096513;28;20465;-74
2022/12/03 10:18:58;;;;;;;34.47;17.08;;;;;;;1.13;100.00;102350.59;5096943;28;20032;-75
2022/12/03 10:21:35;;;;;;;33.50;17.45;;;;;;;1.19;100.00;102348.66;5096859;28;20028;-75
2022/12/03 10:24:16;;;;;;;31.67;16.90;;;;;;;1.25;100.00;102350.25;5097100;28;20028;-74
2022/12/03 10:26:44;;;;;;;30.98;16.48;;;;;;;1.25;100.00;102345.00;5097309;28;20444;-74
2022/12/03 10:29:17;;;;;;;33.60;16.38;;;;;;;1.29;100.00;102343.19;5097013;28;20036;-75
2022/12/03 10:31:43;;;;;;;34.45;16.30;;;;;;;1.27;100.00;102337.97;5096752;28;20063;-74
2022/12/03 10:34:09;;;;;;;32.83;16.05;;;;;;;1.26;100.00;102336.25;5097019;28;20059;-75
2022/12/03 10:36:35;;;;;;;32.65;17.45;;;;;;;1.29;100.00;102327.44;5096322;28;20054;-74
2022/12/03 10:39:14;;;;;;;33.42;17.60;;;;;;;1.26;100.00;102322.28;5096623;28;20032;-74
2022/12/03 10:41:42;;;;;;;32.63;16.83;;;;;;;1.20;100.00;102313.66;5096205;28;20064;-73
2022/12/03 10:44:19;;;;;;;36.03;17.33;;;;;;;1.23;100.00;102320.59;5096420;28;20527;-73
2022/12/03 10:47:02;;;;;;;35.90;17.48;;;;;;;1.18;100.00;102317.22;5096634;28;20062;-75
2022/12/03 10:49:27;;;;;;;34.53;17.63;;;;;;;1.15;100.00;102323.44;5096460;28;20026;-75
2022/12/03 10:51:54;;;;;;;33.97;16.92;;;;;;;1.09;100.00;102313.13;5097036;28;20107;-77
2022/12/03 10:54:22;;;;;;;36.17;17.77;;;;;;;1.02;100.00;102315.03;5097793;28;20036;-77
2022/12/03 10:56:49;;;;;;;36.08;17.52;;;;;;;1.04;100.00;102312.38;5097918;28;20024;-77
2022/12/03 10:59:24;;;;;;;43.10;18.73;;;;;;;0.95;100.00;102305.59;5096090;28;20040;-76
2022/12/03 11:01:50;;;;;;;40.97;18.80;;;;;;;0.95;100.00;102304.75;5095953;28;20058;-77
2022/12/03 11:04:32;;;;;;;37.75;18.63;;;;;;;0.95;100.00;102302.97;5077727;28;20051;-77
2022/12/03 11:07:00;;;;;;;37.60;18.25;;;;;;;0.93;100.00;102298.72;5095989;28;20077;-77
2022/12/03 11:09:32;;;;;;;43.63;20.20;;;;;;;0.86;100.00;102290.13;5095426;28;20035;-78
2022/12/03 11:12:05;;;;;;;43.70;20.42;;;;;;;0.84;100.00;102290.19;5096289;28;20036;-77
2022/12/03 11:14:54;;;;;;;47.42;21.42;;;;;;;0.80;100.00;102285.91;5078212;28;20064;-77
2022/12/03 11:17:43;;;;;;;46.47;20.33;;;;;;;0.77;100.00;102290.38;5095900;28;20039;-77
2022/12/03 11:20:23;;;;;;;44.15;19.63;;;;;;;0.79;100.00;102289.44;5095855;28;20024;-76
2022/12/03 11:22:56;;;;;;;48.72;20.58;;;;;;;0.75;100.00;102281.69;5094995;28;20189;-76
2022/12/03 11:25:27;;;;;;;43.42;19.13;;;;;;;0.76;100.00;102284.28;5096238;28;20031;-77
2022/12/03 11:28:11;;;;;;;41.95;19.00;;;;;;;0.73;100.00;102280.88;5095402;28;20032;-77
2022/12/03 11:30:48;;;;;;;47.35;19.58;;;;;;;0.69;100.00;102277.50;5095416;28;20055;-77
2022/12/03 11:33:23;;;;;;;42.28;19.15;;;;;;;0.67;100.00;102274.03;5095729;28;20109;-76